sensor_id;sensor_type;location;lat;lon;timestamp;P1;durP1;ratioP1;P2;durP2;ratioP2
68192;SDS011;55012;47.562;18.414;2024-03-22T00:00:11;37.03;;;18.55;;
68192;SDS011;55012;47.562;18.414;2024-03-22T00:02:37;35.13;;;18.10;;
68192;SDS011;55012;47.562;18.414;2024-03-22T00:05:03;34.03;;;16.15;;
68192;SDS011;55012;47.562;18.414;2024-03-22T00:07:29;30.50;;;15.02;;
68192;SDS011;55012;47.562;18.414;2024-03-22T00:09:54;34.35;;;16.30;;
68192;SDS011;55012;47.562;18.414;2024-03-22T00:12:19;34.17;;;16.83;;
68192;SDS011;55012;47.562;18.414;2024-03-22T00:14:45;34.60;;;16.67;;
68192;SDS011;55012;47.562;18.414;2024-03-22T00:17:10;32.67;;;15.40;;
68192;SDS011;55012;47.562;18.414;2024-03-22T00:19:36;35.97;;;16.15;;
68192;SDS011;55012;47.562;18.414;2024-03-22T00:22:01;31.58;;;16.05;;
68192;SDS011;55012;47.562;18.414;2024-03-22T00:24:26;35.97;;;15.50;;
68192;SDS011;55012;47.562;18.414;2024-03-22T00:26:52;31.80;;;15.15;;
68192;SDS011;55012;47.562;18.414;2024-03-22T00:29:17;34.72;;;15.10;;
68192;SDS011;55012;47.562;18.414;2024-03-22T00:31:43;34.25;;;15.45;;
68192;SDS011;55012;47.562;18.414;2024-03-22T00:34:08;33.05;;;16.08;;
68192;SDS011;55012;47.562;18.414;2024-03-22T00:36:33;33.25;;;15.15;;
68192;SDS011;55012;47.562;18.414;2024-03-22T00:38:59;31.77;;;15.77;;
68192;SDS011;55012;47.562;18.414;2024-03-22T00:41:24;32.28;;;15.20;;
68192;SDS011;55012;47.562;18.414;2024-03-22T00:43:49;33.03;;;14.93;;
68192;SDS011;55012;47.562;18.414;2024-03-22T00:46:15;32.35;;;15.57;;
68192;SDS011;55012;47.562;18.414;2024-03-22T00:48:40;34.05;;;15.80;;
68192;SDS011;55012;47.562;18.414;2024-03-22T00:51:06;29.83;;;15.38;;
68192;SDS011;55012;47.562;18.414;2024-03-22T00:53:32;34.30;;;15.93;;
68192;SDS011;55012;47.562;18.414;2024-03-22T00:55:57;28.88;;;14.88;;
68192;SDS011;55012;47.562;18.414;2024-03-22T00:58:24;32.53;;;15.77;;
68192;SDS011;55012;47.562;18.414;2024-03-22T01:00:51;29.95;;;15.70;;
68192;SDS011;55012;47.562;18.414;2024-03-22T01:03:16;37.42;;;16.23;;
68192;SDS011;55012;47.562;18.414;2024-03-22T01:05:42;31.67;;;16.08;;
68192;SDS011;55012;47.562;18.414;2024-03-22T01:08:07;36.60;;;16.42;;
68192;SDS011;55012;47.562;18.414;2024-03-22T01:10:33;32.33;;;16.15;;
68192;SDS011;55012;47.562;18.414;2024-03-22T01:12:59;33.22;;;16.50;;
68192;SDS011;55012;47.562;18.414;2024-03-22T01:15:25;29.52;;;15.70;;
68192;SDS011;55012;47.562;18.414;2024-03-22T01:17:50;35.70;;;17.02;;
68192;SDS011;55012;47.562;18.414;2024-03-22T01:20:17;31.33;;;15.77;;
68192;SDS011;55012;47.562;18.414;2024-03-22T01:22:43;31.70;;;15.57;;
68192;SDS011;55012;47.562;18.414;2024-03-22T01:25:08;29.25;;;15.65;;
68192;SDS011;55012;47.562;18.414;2024-03-22T01:27:34;32.38;;;16.73;;
68192;SDS011;55012;47.562;18.414;2024-03-22T01:30:00;33.35;;;16.40;;
68192;SDS011;55012;47.562;18.414;2024-03-22T01:32:25;32.72;;;16.67;;
68192;SDS011;55012;47.562;18.414;2024-03-22T01:34:51;32.88;;;16.48;;
68192;SDS011;55012;47.562;18.414;2024-03-22T01:37:16;32.17;;;16.15;;
68192;SDS011;55012;47.562;18.414;2024-03-22T01:39:41;32.03;;;16.75;;
68192;SDS011;55012;47.562;18.414;2024-03-22T01:42:07;31.50;;;16.77;;
68192;SDS011;55012;47.562;18.414;2024-03-22T01:44:32;32.35;;;16.83;;
68192;SDS011;55012;47.562;18.414;2024-03-22T01:46:57;32.10;;;16.23;;
68192;SDS011;55012;47.562;18.414;2024-03-22T01:49:24;31.02;;;16.17;;
68192;SDS011;55012;47.562;18.414;2024-03-22T01:51:50;31.20;;;15.85;;
68192;SDS011;55012;47.562;18.414;2024-03-22T01:54:16;27.73;;;15.98;;
68192;SDS011;55012;47.562;18.414;2024-03-22T01:56:42;30.23;;;16.17;;
68192;SDS011;55012;47.562;18.414;2024-03-22T01:59:08;28.27;;;15.73;;
68192;SDS011;55012;47.562;18.414;2024-03-22T02:01:33;27.50;;;15.25;;
68192;SDS011;55012;47.562;18.414;2024-03-22T02:04:00;31.52;;;15.73;;
68192;SDS011;55012;47.562;18.414;2024-03-22T02:06:26;29.98;;;15.98;;
68192;SDS011;55012;47.562;18.414;2024-03-22T02:08:51;31.90;;;16.70;;
68192;SDS011;55012;47.562;18.414;2024-03-22T02:11:17;30.63;;;15.88;;
68192;SDS011;55012;47.562;18.414;2024-03-22T02:13:43;27.33;;;15.68;;
68192;SDS011;55012;47.562;18.414;2024-03-22T02:16:09;30.35;;;15.68;;
68192;SDS011;55012;47.562;18.414;2024-03-22T02:18:34;30.15;;;15.73;;
68192;SDS011;55012;47.562;18.414;2024-03-22T02:21:00;29.65;;;16.08;;
68192;SDS011;55012;47.562;18.414;2024-03-22T02:25:57;28.77;;;15.57;;
68192;SDS011;55012;47.562;18.414;2024-03-22T02:28:22;29.73;;;15.90;;
68192;SDS011;55012;47.562;18.414;2024-03-22T02:30:48;25.92;;;14.70;;
68192;SDS011;55012;47.562;18.414;2024-03-22T02:33:13;27.60;;;15.07;;
68192;SDS011;55012;47.562;18.414;2024-03-22T02:35:38;26.83;;;15.50;;
68192;SDS011;55012;47.562;18.414;2024-03-22T02:38:04;27.73;;;14.80;;
68192;SDS011;55012;47.562;18.414;2024-03-22T02:40:29;26.95;;;15.32;;
68192;SDS011;55012;47.562;18.414;2024-03-22T02:42:54;29.00;;;15.20;;
68192;SDS011;55012;47.562;18.414;2024-03-22T02:45:20;25.77;;;14.65;;
68192;SDS011;55012;47.562;18.414;2024-03-22T02:47:46;27.35;;;14.57;;
68192;SDS011;55012;47.562;18.414;2024-03-22T02:50:11;25.08;;;14.32;;
68192;SDS011;55012;47.562;18.414;2024-03-22T02:52:37;26.92;;;14.15;;
68192;SDS011;55012;47.562;18.414;2024-03-22T02:55:02;25.02;;;14.40;;
68192;SDS011;55012;47.562;18.414;2024-03-22T02:57:27;26.02;;;15.20;;
68192;SDS011;55012;47.562;18.414;2024-03-22T02:59:53;24.23;;;14.35;;
68192;SDS011;55012;47.562;18.414;2024-03-22T03:02:18;24.05;;;13.82;;
68192;SDS011;55012;47.562;18.414;2024-03-22T03:04:44;24.42;;;13.40;;
68192;SDS011;55012;47.562;18.414;2024-03-22T03:07:09;23.23;;;13.63;;
68192;SDS011;55012;47.562;18.414;2024-03-22T03:09:35;23.80;;;14.00;;
68192;SDS011;55012;47.562;18.414;2024-03-22T03:12:00;25.42;;;13.50;;
68192;SDS011;55012;47.562;18.414;2024-03-22T03:14:26;23.90;;;13.95;;
68192;SDS011;55012;47.562;18.414;2024-03-22T03:16:51;23.70;;;13.70;;
68192;SDS011;55012;47.562;18.414;2024-03-22T03:19:16;22.98;;;13.60;;
68192;SDS011;55012;47.562;18.414;2024-03-22T03:21:42;22.33;;;13.00;;
68192;SDS011;55012;47.562;18.414;2024-03-22T03:24:07;24.35;;;13.38;;
68192;SDS011;55012;47.562;18.414;2024-03-22T03:26:34;22.92;;;13.15;;
68192;SDS011;55012;47.562;18.414;2024-03-22T03:28:59;23.52;;;12.88;;
68192;SDS011;55012;47.562;18.414;2024-03-22T03:31:25;23.15;;;12.77;;
68192;SDS011;55012;47.562;18.414;2024-03-22T03:33:50;22.70;;;12.85;;
68192;SDS011;55012;47.562;18.414;2024-03-22T03:36:16;25.98;;;13.82;;
68192;SDS011;55012;47.562;18.414;2024-03-22T03:38:41;22.90;;;12.63;;
68192;SDS011;55012;47.562;18.414;2024-03-22T03:41:07;21.40;;;12.25;;
68192;SDS011;55012;47.562;18.414;2024-03-22T03:43:32;20.65;;;12.32;;
68192;SDS011;55012;47.562;18.414;2024-03-22T03:45:57;21.63;;;12.77;;
68192;SDS011;55012;47.562;18.414;2024-03-22T03:48:23;24.35;;;13.18;;
68192;SDS011;55012;47.562;18.414;2024-03-22T03:50:59;23.10;;;12.75;;
68192;SDS011;55012;47.562;18.414;2024-03-22T03:53:28;23.70;;;12.50;;
68192;SDS011;55012;47.562;18.414;2024-03-22T03:55:54;22.30;;;13.40;;
68192;SDS011;55012;47.562;18.414;2024-03-22T03:58:19;22.02;;;12.57;;
68192;SDS011;55012;47.562;18.414;2024-03-22T04:00:44;21.77;;;12.65;;
68192;SDS011;55012;47.562;18.414;2024-03-22T04:03:10;22.25;;;12.10;;
68192;SDS011;55012;47.562;18.414;2024-03-22T04:05:35;22.77;;;12.15;;
68192;SDS011;55012;47.562;18.414;2024-03-22T04:08:00;20.85;;;12.55;;
68192;SDS011;55012;47.562;18.414;2024-03-22T04:10:26;21.98;;;12.20;;
68192;SDS011;55012;47.562;18.414;2024-03-22T04:12:51;21.65;;;12.52;;
68192;SDS011;55012;47.562;18.414;2024-03-22T04:15:16;22.45;;;12.98;;
68192;SDS011;55012;47.562;18.414;2024-03-22T04:17:42;22.77;;;12.13;;
68192;SDS011;55012;47.562;18.414;2024-03-22T04:20:07;22.25;;;12.82;;
68192;SDS011;55012;47.562;18.414;2024-03-22T04:22:33;26.38;;;13.45;;
68192;SDS011;55012;47.562;18.414;2024-03-22T04:24:59;21.27;;;13.32;;
68192;SDS011;55012;47.562;18.414;2024-03-22T04:27:24;26.88;;;12.63;;
68192;SDS011;55012;47.562;18.414;2024-03-22T04:29:50;21.05;;;12.75;;
68192;SDS011;55012;47.562;18.414;2024-03-22T04:32:15;22.92;;;13.25;;
68192;SDS011;55012;47.562;18.414;2024-03-22T04:34:43;20.50;;;11.88;;
68192;SDS011;55012;47.562;18.414;2024-03-22T04:37:09;22.80;;;13.02;;
68192;SDS011;55012;47.562;18.414;2024-03-22T04:39:36;22.30;;;13.10;;
68192;SDS011;55012;47.562;18.414;2024-03-22T04:42:02;21.13;;;12.90;;
68192;SDS011;55012;47.562;18.414;2024-03-22T04:44:28;21.70;;;12.68;;
68192;SDS011;55012;47.562;18.414;2024-03-22T04:46:54;24.33;;;13.25;;
68192;SDS011;55012;47.562;18.414;2024-03-22T04:49:19;24.00;;;13.20;;
68192;SDS011;55012;47.562;18.414;2024-03-22T04:51:44;22.75;;;12.65;;
68192;SDS011;55012;47.562;18.414;2024-03-22T04:54:10;23.80;;;13.85;;
68192;SDS011;55012;47.562;18.414;2024-03-22T04:56:35;24.27;;;13.68;;
68192;SDS011;55012;47.562;18.414;2024-03-22T04:59:01;26.02;;;13.27;;
68192;SDS011;55012;47.562;18.414;2024-03-22T05:01:26;24.67;;;13.98;;
68192;SDS011;55012;47.562;18.414;2024-03-22T05:03:51;26.52;;;13.93;;
68192;SDS011;55012;47.562;18.414;2024-03-22T05:06:17;24.33;;;14.02;;
68192;SDS011;55012;47.562;18.414;2024-03-22T05:08:42;23.33;;;13.45;;
68192;SDS011;55012;47.562;18.414;2024-03-22T05:11:08;22.40;;;13.30;;
68192;SDS011;55012;47.562;18.414;2024-03-22T05:13:33;24.85;;;13.73;;
68192;SDS011;55012;47.562;18.414;2024-03-22T05:15:58;25.30;;;13.63;;
68192;SDS011;55012;47.562;18.414;2024-03-22T05:18:24;23.00;;;13.32;;
68192;SDS011;55012;47.562;18.414;2024-03-22T05:20:49;21.50;;;12.38;;
68192;SDS011;55012;47.562;18.414;2024-03-22T05:23:15;21.75;;;12.25;;
68192;SDS011;55012;47.562;18.414;2024-03-22T05:25:43;22.25;;;12.93;;
68192;SDS011;55012;47.562;18.414;2024-03-22T05:28:08;22.60;;;13.20;;
68192;SDS011;55012;47.562;18.414;2024-03-22T05:30:34;23.50;;;13.85;;
68192;SDS011;55012;47.562;18.414;2024-03-22T05:32:59;21.17;;;13.15;;
68192;SDS011;55012;47.562;18.414;2024-03-22T05:35:24;23.35;;;13.65;;
68192;SDS011;55012;47.562;18.414;2024-03-22T05:37:50;22.10;;;13.25;;
68192;SDS011;55012;47.562;18.414;2024-03-22T05:40:15;20.95;;;12.50;;
68192;SDS011;55012;47.562;18.414;2024-03-22T05:42:42;22.08;;;13.35;;
68192;SDS011;55012;47.562;18.414;2024-03-22T05:45:07;25.20;;;13.23;;
68192;SDS011;55012;47.562;18.414;2024-03-22T05:47:33;21.23;;;13.15;;
68192;SDS011;55012;47.562;18.414;2024-03-22T05:49:59;20.83;;;12.70;;
68192;SDS011;55012;47.562;18.414;2024-03-22T05:52:25;24.23;;;13.82;;
68192;SDS011;55012;47.562;18.414;2024-03-22T05:54:50;21.98;;;13.07;;
68192;SDS011;55012;47.562;18.414;2024-03-22T05:57:16;24.10;;;13.55;;
68192;SDS011;55012;47.562;18.414;2024-03-22T05:59:42;29.55;;;14.70;;
68192;SDS011;55012;47.562;18.414;2024-03-22T06:02:07;25.30;;;14.30;;
68192;SDS011;55012;47.562;18.414;2024-03-22T06:04:33;24.55;;;14.52;;
68192;SDS011;55012;47.562;18.414;2024-03-22T06:06:59;24.67;;;13.77;;
68192;SDS011;55012;47.562;18.414;2024-03-22T06:09:26;24.73;;;14.93;;
68192;SDS011;55012;47.562;18.414;2024-03-22T06:12:11;31.05;;;14.50;;
68192;SDS011;55012;47.562;18.414;2024-03-22T06:14:37;26.35;;;14.52;;
68192;SDS011;55012;47.562;18.414;2024-03-22T06:17:03;26.88;;;14.25;;
68192;SDS011;55012;47.562;18.414;2024-03-22T06:19:29;25.75;;;14.38;;
68192;SDS011;55012;47.562;18.414;2024-03-22T06:21:54;25.10;;;14.68;;
68192;SDS011;55012;47.562;18.414;2024-03-22T06:24:19;27.08;;;15.02;;
68192;SDS011;55012;47.562;18.414;2024-03-22T06:26:45;27.13;;;15.52;;
68192;SDS011;55012;47.562;18.414;2024-03-22T06:29:10;29.98;;;15.32;;
68192;SDS011;55012;47.562;18.414;2024-03-22T06:31:36;28.67;;;15.65;;
68192;SDS011;55012;47.562;18.414;2024-03-22T06:34:01;29.95;;;15.60;;
68192;SDS011;55012;47.562;18.414;2024-03-22T06:36:30;27.73;;;15.88;;
68192;SDS011;55012;47.562;18.414;2024-03-22T06:38:57;30.00;;;15.55;;
68192;SDS011;55012;47.562;18.414;2024-03-22T06:41:22;27.50;;;16.40;;
68192;SDS011;55012;47.562;18.414;2024-03-22T06:43:47;27.48;;;15.63;;
68192;SDS011;55012;47.562;18.414;2024-03-22T06:46:13;26.75;;;15.20;;
68192;SDS011;55012;47.562;18.414;2024-03-22T06:48:38;28.38;;;16.08;;
68192;SDS011;55012;47.562;18.414;2024-03-22T06:51:03;28.90;;;16.42;;
68192;SDS011;55012;47.562;18.414;2024-03-22T06:53:29;29.25;;;16.95;;
68192;SDS011;55012;47.562;18.414;2024-03-22T06:55:54;32.72;;;17.98;;
68192;SDS011;55012;47.562;18.414;2024-03-22T06:58:19;35.40;;;18.67;;
68192;SDS011;55012;47.562;18.414;2024-03-22T07:00:45;35.80;;;19.02;;
68192;SDS011;55012;47.562;18.414;2024-03-22T07:03:10;32.20;;;18.48;;
68192;SDS011;55012;47.562;18.414;2024-03-22T07:05:35;31.77;;;17.50;;
68192;SDS011;55012;47.562;18.414;2024-03-22T07:08:01;33.70;;;18.83;;
68192;SDS011;55012;47.562;18.414;2024-03-22T07:10:26;36.20;;;20.17;;
68192;SDS011;55012;47.562;18.414;2024-03-22T07:12:53;39.75;;;20.75;;
68192;SDS011;55012;47.562;18.414;2024-03-22T07:15:20;41.88;;;21.60;;
68192;SDS011;55012;47.562;18.414;2024-03-22T07:17:47;39.67;;;20.48;;
68192;SDS011;55012;47.562;18.414;2024-03-22T07:20:12;38.35;;;20.45;;
68192;SDS011;55012;47.562;18.414;2024-03-22T07:22:37;37.53;;;20.20;;
68192;SDS011;55012;47.562;18.414;2024-03-22T07:25:03;37.28;;;19.15;;
68192;SDS011;55012;47.562;18.414;2024-03-22T07:27:29;38.35;;;19.35;;
68192;SDS011;55012;47.562;18.414;2024-03-22T07:29:56;35.03;;;19.80;;
68192;SDS011;55012;47.562;18.414;2024-03-22T07:32:21;35.95;;;19.73;;
68192;SDS011;55012;47.562;18.414;2024-03-22T07:34:47;30.58;;;18.63;;
68192;SDS011;55012;47.562;18.414;2024-03-22T07:37:12;36.28;;;19.42;;
68192;SDS011;55012;47.562;18.414;2024-03-22T07:39:38;30.90;;;18.42;;
68192;SDS011;55012;47.562;18.414;2024-03-22T07:42:03;34.45;;;18.92;;
68192;SDS011;55012;47.562;18.414;2024-03-22T07:44:28;31.88;;;17.33;;
68192;SDS011;55012;47.562;18.414;2024-03-22T07:46:54;32.97;;;19.05;;
68192;SDS011;55012;47.562;18.414;2024-03-22T07:49:20;30.75;;;18.50;;
68192;SDS011;55012;47.562;18.414;2024-03-22T07:51:45;31.67;;;18.80;;
68192;SDS011;55012;47.562;18.414;2024-03-22T07:54:10;32.35;;;18.90;;
68192;SDS011;55012;47.562;18.414;2024-03-22T07:56:36;32.63;;;18.95;;
68192;SDS011;55012;47.562;18.414;2024-03-22T07:59:01;34.45;;;19.20;;
68192;SDS011;55012;47.562;18.414;2024-03-22T08:01:27;34.22;;;19.02;;
68192;SDS011;55012;47.562;18.414;2024-03-22T08:03:52;33.47;;;18.77;;
68192;SDS011;55012;47.562;18.414;2024-03-22T08:06:18;31.45;;;18.15;;
68192;SDS011;55012;47.562;18.414;2024-03-22T08:08:43;31.30;;;18.95;;
68192;SDS011;55012;47.562;18.414;2024-03-22T08:11:09;33.53;;;19.48;;
68192;SDS011;55012;47.562;18.414;2024-03-22T08:13:35;32.58;;;18.85;;
68192;SDS011;55012;47.562;18.414;2024-03-22T08:16:00;31.83;;;18.55;;
68192;SDS011;55012;47.562;18.414;2024-03-22T08:18:26;36.05;;;19.85;;
68192;SDS011;55012;47.562;18.414;2024-03-22T08:20:51;32.13;;;18.13;;
68192;SDS011;55012;47.562;18.414;2024-03-22T08:23:16;28.80;;;17.60;;
68192;SDS011;55012;47.562;18.414;2024-03-22T08:25:45;33.42;;;19.23;;
68192;SDS011;55012;47.562;18.414;2024-03-22T08:28:10;32.20;;;18.73;;
68192;SDS011;55012;47.562;18.414;2024-03-22T08:30:39;38.40;;;19.17;;
68192;SDS011;55012;47.562;18.414;2024-03-22T08:33:04;33.33;;;18.52;;
68192;SDS011;55012;47.562;18.414;2024-03-22T08:35:29;32.25;;;17.95;;
68192;SDS011;55012;47.562;18.414;2024-03-22T08:37:55;32.45;;;18.48;;
68192;SDS011;55012;47.562;18.414;2024-03-22T08:40:21;35.88;;;20.25;;
68192;SDS011;55012;47.562;18.414;2024-03-22T08:42:47;29.92;;;17.63;;
68192;SDS011;55012;47.562;18.414;2024-03-22T08:45:12;29.33;;;18.20;;
68192;SDS011;55012;47.562;18.414;2024-03-22T08:47:37;34.88;;;20.08;;
68192;SDS011;55012;47.562;18.414;2024-03-22T08:50:03;33.47;;;19.13;;
68192;SDS011;55012;47.562;18.414;2024-03-22T08:52:28;34.78;;;20.10;;
68192;SDS011;55012;47.562;18.414;2024-03-22T08:54:55;35.10;;;19.77;;
68192;SDS011;55012;47.562;18.414;2024-03-22T08:57:20;33.25;;;19.33;;
68192;SDS011;55012;47.562;18.414;2024-03-22T08:59:47;34.40;;;20.33;;
68192;SDS011;55012;47.562;18.414;2024-03-22T09:02:12;40.97;;;19.95;;
68192;SDS011;55012;47.562;18.414;2024-03-22T09:04:38;33.72;;;19.55;;
68192;SDS011;55012;47.562;18.414;2024-03-22T09:07:04;30.05;;;18.98;;
68192;SDS011;55012;47.562;18.414;2024-03-22T09:09:29;33.50;;;20.08;;
68192;SDS011;55012;47.562;18.414;2024-03-22T09:11:55;31.73;;;18.88;;
68192;SDS011;55012;47.562;18.414;2024-03-22T09:14:20;33.20;;;19.73;;
68192;SDS011;55012;47.562;18.414;2024-03-22T09:16:45;33.45;;;19.40;;
68192;SDS011;55012;47.562;18.414;2024-03-22T09:19:11;34.05;;;18.90;;
68192;SDS011;55012;47.562;18.414;2024-03-22T09:21:36;31.48;;;19.25;;
68192;SDS011;55012;47.562;18.414;2024-03-22T09:24:02;34.13;;;19.85;;
68192;SDS011;55012;47.562;18.414;2024-03-22T09:26:28;34.03;;;20.25;;
68192;SDS011;55012;47.562;18.414;2024-03-22T09:28:53;34.65;;;19.55;;
68192;SDS011;55012;47.562;18.414;2024-03-22T09:31:19;36.58;;;20.10;;
68192;SDS011;55012;47.562;18.414;2024-03-22T09:33:45;33.40;;;20.17;;
68192;SDS011;55012;47.562;18.414;2024-03-22T09:36:10;32.00;;;20.13;;
68192;SDS011;55012;47.562;18.414;2024-03-22T09:38:35;36.75;;;20.83;;
68192;SDS011;55012;47.562;18.414;2024-03-22T09:41:01;36.08;;;20.15;;
68192;SDS011;55012;47.562;18.414;2024-03-22T09:43:30;33.22;;;19.90;;
68192;SDS011;55012;47.562;18.414;2024-03-22T09:45:57;32.05;;;19.50;;
68192;SDS011;55012;47.562;18.414;2024-03-22T09:48:23;33.70;;;19.63;;
68192;SDS011;55012;47.562;18.414;2024-03-22T09:50:50;33.38;;;19.77;;
68192;SDS011;55012;47.562;18.414;2024-03-22T09:53:19;31.20;;;19.05;;
68192;SDS011;55012;47.562;18.414;2024-03-22T09:55:46;33.83;;;19.13;;
68192;SDS011;55012;47.562;18.414;2024-03-22T09:58:13;30.95;;;18.38;;
68192;SDS011;55012;47.562;18.414;2024-03-22T10:00:38;28.63;;;17.88;;
68192;SDS011;55012;47.562;18.414;2024-03-22T10:03:04;29.88;;;18.40;;
68192;SDS011;55012;47.562;18.414;2024-03-22T10:05:30;26.70;;;16.55;;
68192;SDS011;55012;47.562;18.414;2024-03-22T10:07:56;29.08;;;17.02;;
68192;SDS011;55012;47.562;18.414;2024-03-22T10:10:21;31.00;;;18.48;;
68192;SDS011;55012;47.562;18.414;2024-03-22T10:12:48;26.63;;;16.98;;
68192;SDS011;55012;47.562;18.414;2024-03-22T10:15:13;28.15;;;17.27;;
68192;SDS011;55012;47.562;18.414;2024-03-22T10:17:39;28.13;;;16.75;;
68192;SDS011;55012;47.562;18.414;2024-03-22T10:20:05;29.65;;;16.92;;
68192;SDS011;55012;47.562;18.414;2024-03-22T10:22:57;27.98;;;16.63;;
68192;SDS011;55012;47.562;18.414;2024-03-22T10:25:25;31.25;;;18.75;;
68192;SDS011;55012;47.562;18.414;2024-03-22T10:27:53;29.40;;;18.27;;
68192;SDS011;55012;47.562;18.414;2024-03-22T10:30:19;33.38;;;18.40;;
68192;SDS011;55012;47.562;18.414;2024-03-22T10:32:44;31.65;;;17.70;;
68192;SDS011;55012;47.562;18.414;2024-03-22T10:35:13;26.88;;;16.45;;
68192;SDS011;55012;47.562;18.414;2024-03-22T10:37:39;28.13;;;16.48;;
68192;SDS011;55012;47.562;18.414;2024-03-22T10:40:05;26.73;;;15.85;;
68192;SDS011;55012;47.562;18.414;2024-03-22T10:42:38;25.63;;;15.35;;
68192;SDS011;55012;47.562;18.414;2024-03-22T10:45:04;26.98;;;15.68;;
68192;SDS011;55012;47.562;18.414;2024-03-22T10:47:32;26.30;;;14.73;;
68192;SDS011;55012;47.562;18.414;2024-03-22T10:50:17;24.73;;;15.63;;
68192;SDS011;55012;47.562;18.414;2024-03-22T10:52:45;25.80;;;15.48;;
68192;SDS011;55012;47.562;18.414;2024-03-22T10:55:16;25.30;;;14.85;;
68192;SDS011;55012;47.562;18.414;2024-03-22T10:58:03;25.80;;;14.25;;
68192;SDS011;55012;47.562;18.414;2024-03-22T11:00:30;24.33;;;14.40;;
68192;SDS011;55012;47.562;18.414;2024-03-22T11:02:57;23.35;;;14.68;;
68192;SDS011;55012;47.562;18.414;2024-03-22T11:05:23;23.65;;;14.00;;
68192;SDS011;55012;47.562;18.414;2024-03-22T11:08:02;25.35;;;15.23;;
68192;SDS011;55012;47.562;18.414;2024-03-22T11:10:34;24.95;;;15.45;;
68192;SDS011;55012;47.562;18.414;2024-03-22T11:13:00;27.77;;;15.70;;
68192;SDS011;55012;47.562;18.414;2024-03-22T11:15:29;23.35;;;13.93;;
68192;SDS011;55012;47.562;18.414;2024-03-22T11:17:55;21.10;;;12.48;;
68192;SDS011;55012;47.562;18.414;2024-03-22T11:20:21;17.38;;;11.10;;
68192;SDS011;55012;47.562;18.414;2024-03-22T11:22:46;18.70;;;11.70;;
68192;SDS011;55012;47.562;18.414;2024-03-22T11:25:12;18.08;;;11.63;;
68192;SDS011;55012;47.562;18.414;2024-03-22T11:27:37;17.20;;;9.98;;
68192;SDS011;55012;47.562;18.414;2024-03-22T11:30:03;16.30;;;10.15;;
68192;SDS011;55012;47.562;18.414;2024-03-22T11:32:29;17.17;;;10.27;;
68192;SDS011;55012;47.562;18.414;2024-03-22T11:34:55;17.83;;;10.73;;
68192;SDS011;55012;47.562;18.414;2024-03-22T11:37:20;18.23;;;10.48;;
68192;SDS011;55012;47.562;18.414;2024-03-22T11:39:46;17.08;;;9.43;;
68192;SDS011;55012;47.562;18.414;2024-03-22T11:42:11;17.27;;;10.50;;
68192;SDS011;55012;47.562;18.414;2024-03-22T11:44:37;15.82;;;9.45;;
68192;SDS011;55012;47.562;18.414;2024-03-22T11:47:05;16.55;;;10.35;;
68192;SDS011;55012;47.562;18.414;2024-03-22T11:49:30;16.98;;;10.27;;
68192;SDS011;55012;47.562;18.414;2024-03-22T11:51:56;16.90;;;10.13;;
68192;SDS011;55012;47.562;18.414;2024-03-22T11:54:22;16.60;;;9.35;;
68192;SDS011;55012;47.562;18.414;2024-03-22T11:56:48;20.30;;;11.55;;
68192;SDS011;55012;47.562;18.414;2024-03-22T11:59:14;16.08;;;9.90;;
68192;SDS011;55012;47.562;18.414;2024-03-22T12:01:42;18.17;;;11.23;;
68192;SDS011;55012;47.562;18.414;2024-03-22T12:04:07;21.15;;;11.20;;
68192;SDS011;55012;47.562;18.414;2024-03-22T12:06:40;17.98;;;11.07;;
68192;SDS011;55012;47.562;18.414;2024-03-22T12:09:06;19.55;;;11.85;;
68192;SDS011;55012;47.562;18.414;2024-03-22T12:11:33;18.02;;;11.57;;
68192;SDS011;55012;47.562;18.414;2024-03-22T12:13:58;20.83;;;12.60;;
68192;SDS011;55012;47.562;18.414;2024-03-22T12:16:24;20.08;;;12.48;;
68192;SDS011;55012;47.562;18.414;2024-03-22T12:18:49;20.05;;;12.82;;
68192;SDS011;55012;47.562;18.414;2024-03-22T12:21:14;20.92;;;12.48;;
68192;SDS011;55012;47.562;18.414;2024-03-22T12:23:40;21.48;;;13.13;;
68192;SDS011;55012;47.562;18.414;2024-03-22T12:26:05;20.17;;;12.88;;
68192;SDS011;55012;47.562;18.414;2024-03-22T12:28:32;23.85;;;13.40;;
68192;SDS011;55012;47.562;18.414;2024-03-22T12:30:57;19.77;;;12.32;;
68192;SDS011;55012;47.562;18.414;2024-03-22T12:33:23;24.38;;;13.48;;
68192;SDS011;55012;47.562;18.414;2024-03-22T12:35:48;20.38;;;13.32;;
68192;SDS011;55012;47.562;18.414;2024-03-22T12:38:14;22.02;;;12.73;;
68192;SDS011;55012;47.562;18.414;2024-03-22T12:40:40;19.95;;;12.20;;
68192;SDS011;55012;47.562;18.414;2024-03-22T12:43:06;21.52;;;12.07;;
68192;SDS011;55012;47.562;18.414;2024-03-22T12:45:34;20.20;;;12.13;;
68192;SDS011;55012;47.562;18.414;2024-03-22T12:47:59;23.92;;;13.30;;
68192;SDS011;55012;47.562;18.414;2024-03-22T12:50:26;17.40;;;11.65;;
68192;SDS011;55012;47.562;18.414;2024-03-22T12:52:52;22.83;;;14.27;;
68192;SDS011;55012;47.562;18.414;2024-03-22T12:55:17;20.85;;;13.43;;
68192;SDS011;55012;47.562;18.414;2024-03-22T12:57:42;19.63;;;12.95;;
68192;SDS011;55012;47.562;18.414;2024-03-22T13:00:08;20.55;;;13.18;;
68192;SDS011;55012;47.562;18.414;2024-03-22T13:02:38;19.17;;;12.65;;
68192;SDS011;55012;47.562;18.414;2024-03-22T13:05:05;21.35;;;13.00;;
68192;SDS011;55012;47.562;18.414;2024-03-22T13:07:31;20.83;;;12.93;;
68192;SDS011;55012;47.562;18.414;2024-03-22T13:09:57;23.23;;;12.20;;
68192;SDS011;55012;47.562;18.414;2024-03-22T13:12:25;20.40;;;12.88;;
68192;SDS011;55012;47.562;18.414;2024-03-22T13:14:50;21.10;;;12.73;;
68192;SDS011;55012;47.562;18.414;2024-03-22T13:17:17;19.20;;;12.07;;
68192;SDS011;55012;47.562;18.414;2024-03-22T13:19:42;15.25;;;9.98;;
68192;SDS011;55012;47.562;18.414;2024-03-22T13:22:07;16.55;;;9.40;;
68192;SDS011;55012;47.562;18.414;2024-03-22T13:24:34;15.57;;;8.27;;
68192;SDS011;55012;47.562;18.414;2024-03-22T13:27:00;12.93;;;7.63;;
68192;SDS011;55012;47.562;18.414;2024-03-22T13:29:25;14.13;;;8.52;;
68192;SDS011;55012;47.562;18.414;2024-03-22T13:31:51;15.85;;;8.40;;
68192;SDS011;55012;47.562;18.414;2024-03-22T13:34:17;11.75;;;7.60;;
68192;SDS011;55012;47.562;18.414;2024-03-22T13:36:42;13.65;;;8.73;;
68192;SDS011;55012;47.562;18.414;2024-03-22T13:39:08;14.73;;;8.45;;
68192;SDS011;55012;47.562;18.414;2024-03-22T13:41:35;13.43;;;7.68;;
68192;SDS011;55012;47.562;18.414;2024-03-22T13:44:01;12.75;;;8.13;;
68192;SDS011;55012;47.562;18.414;2024-03-22T13:46:28;10.63;;;7.28;;
68192;SDS011;55012;47.562;18.414;2024-03-22T13:48:54;13.65;;;7.47;;
68192;SDS011;55012;47.562;18.414;2024-03-22T13:51:19;13.88;;;8.07;;
68192;SDS011;55012;47.562;18.414;2024-03-22T13:53:44;12.48;;;7.55;;
68192;SDS011;55012;47.562;18.414;2024-03-22T13:56:10;14.55;;;8.35;;
68192;SDS011;55012;47.562;18.414;2024-03-22T13:58:35;14.00;;;7.95;;
68192;SDS011;55012;47.562;18.414;2024-03-22T14:01:00;14.32;;;8.05;;
68192;SDS011;55012;47.562;18.414;2024-03-22T14:03:26;13.98;;;8.18;;